createdAt,value
2023-05-23T00:03:03.116Z,100375.10
2023-05-23T00:08:06.719Z,100376.64
2023-05-23T00:13:12.644Z,100374.90
2023-05-23T00:18:16.722Z,100373.59
2023-05-23T00:23:21.029Z,100374.92
2023-05-23T00:28:35.541Z,100368.98
2023-05-23T00:33:38.928Z,100367.09
2023-05-23T00:38:43.395Z,100363.06
2023-05-23T00:43:47.034Z,100358.34
2023-05-23T00:48:50.251Z,100355.05
2023-05-23T00:53:55.321Z,100354.84
2023-05-23T00:59:01.024Z,100354.83
2023-05-23T01:04:04.956Z,100356.55
2023-05-23T01:09:09.816Z,100357.38
2023-05-23T01:14:22.496Z,100356.52
2023-05-23T01:19:41.167Z,100360.72
2023-05-23T01:24:56.710Z,100359.90
2023-05-23T01:30:02.790Z,100359.81
2023-05-23T01:35:07.180Z,100358.91
2023-05-23T01:40:11.307Z,100352.00
2023-05-23T01:45:16.703Z,100348.89
2023-05-23T01:50:20.985Z,100345.45
2023-05-23T01:55:26.742Z,100340.90
2023-05-23T02:00:30.663Z,100338.21
2023-05-23T02:05:34.208Z,100330.98
2023-05-23T02:10:38.395Z,100328.83
2023-05-23T02:15:42.023Z,100327.80
2023-05-23T02:20:46.050Z,100324.59
2023-05-23T02:25:49.383Z,100321.79
2023-05-23T02:30:52.780Z,100317.02
2023-05-23T02:35:56.330Z,100315.20
2023-05-23T02:41:00.969Z,100311.95
2023-05-23T02:46:04.658Z,100312.29
2023-05-23T02:51:09.381Z,100311.35
2023-05-23T02:56:13.696Z,100309.69
2023-05-23T03:01:18.314Z,100310.73
2023-05-23T03:06:24.419Z,100308.35
2023-05-23T03:11:31.080Z,100310.39
2023-05-23T03:16:36.110Z,100309.77
2023-05-23T03:21:45.025Z,100306.11
2023-05-23T03:26:48.378Z,100306.80
2023-05-23T03:31:52.095Z,100311.95
2023-05-23T03:36:55.506Z,100308.34
2023-05-23T03:41:59.098Z,100309.50
2023-05-23T03:47:03.060Z,100308.40
2023-05-23T03:52:06.861Z,100308.23
2023-05-23T03:57:10.911Z,100309.34
2023-05-23T04:02:14.717Z,100305.91
2023-05-23T04:07:19.277Z,100299.41
2023-05-23T04:12:23.240Z,100297.48
2023-05-23T04:17:30.987Z,100291.88
2023-05-23T04:22:36.866Z,100290.83
2023-05-23T04:27:41.124Z,100294.21
2023-05-23T04:32:46.336Z,100296.40
2023-05-23T04:37:49.728Z,100290.30
2023-05-23T04:42:53.103Z,100285.38
2023-05-23T04:48:08.426Z,100286.02
2023-05-23T04:53:16.283Z,100287.95
2023-05-23T04:58:20.205Z,100284.23
2023-05-23T05:03:25.219Z,100281.86
2023-05-23T05:08:29.055Z,100279.34
2023-05-23T05:13:32.821Z,100276.20
2023-05-23T05:18:36.712Z,100267.73
2023-05-23T05:23:40.218Z,100266.12
2023-05-23T05:28:44.848Z,100263.95
2023-05-23T05:33:48.148Z,100266.46
2023-05-23T05:38:53.638Z,100268.11
2023-05-23T05:43:57.606Z,100267.02
2023-05-23T05:49:01.386Z,100269.45
2023-05-23T05:54:04.743Z,100267.98
2023-05-23T05:59:09.184Z,100265.77
2023-05-23T06:04:15.206Z,100262.79
2023-05-23T06:09:19.013Z,100254.42
2023-05-23T06:14:22.343Z,100252.95
2023-05-23T06:19:26.827Z,100256.48
2023-05-23T06:24:31.127Z,100248.98
2023-05-23T06:29:36.449Z,100240.40
2023-05-23T06:34:41.167Z,100241.55
2023-05-23T06:39:44.518Z,100236.05
2023-05-23T06:44:47.842Z,100230.16
2023-05-23T06:49:51.081Z,100230.04
2023-05-23T06:54:54.591Z,100223.48
2023-05-23T06:59:58.152Z,100222.67
2023-05-23T07:05:01.587Z,100213.84
2023-05-23T07:10:20.104Z,100211.02
2023-05-23T07:15:24.082Z,100204.15
2023-05-23T07:20:34.514Z,100197.43
2023-05-23T07:26:00.500Z,100189.42
2023-05-23T07:31:10.307Z,100185.51
2023-05-23T07:36:14.220Z,100183.36
2023-05-23T07:41:17.463Z,100178.23
2023-05-23T07:46:23.158Z,100170.89
2023-05-23T07:51:27.058Z,100168.25
2023-05-23T07:56:31.968Z,100163.70
2023-05-23T08:01:36.827Z,100167.73
2023-05-23T08:06:48.794Z,100166.30
2023-05-23T08:12:09.783Z,100164.61
2023-05-23T08:17:13.890Z,100157.98
2023-05-23T08:22:17.785Z,100158.14
2023-05-23T08:27:21.280Z,100155.28
2023-05-23T08:32:27.209Z,100154.23
2023-05-23T08:37:31.102Z,100148.41
2023-05-23T08:42:34.879Z,100148.84
2023-05-23T08:47:43.191Z,100142.56
2023-05-23T08:52:58.503Z,100134.77
2023-05-23T08:58:03.977Z,100130.69
2023-05-23T09:03:14.550Z,100131.16
2023-05-23T09:08:26.536Z,100128.22
2023-05-23T09:13:35.043Z,100132.84
2023-05-23T09:18:41.683Z,100129.55
2023-05-23T09:23:45.600Z,100121.09
2023-05-23T09:28:49.354Z,100117.02
2023-05-23T09:33:52.574Z,100110.60
2023-05-23T09:38:56.668Z,100116.71
2023-05-23T09:44:05.116Z,100114.81
2023-05-23T09:49:18.658Z,100109.85
2023-05-23T09:54:23.372Z,100103.88
2023-05-23T09:59:29.256Z,100106.70
2023-05-23T10:04:35.740Z,100106.39
2023-05-23T10:09:41.786Z,100106.22
2023-05-23T10:14:52.274Z,100105.35
2023-05-23T10:20:08.673Z,100107.29
2023-05-23T10:25:13.664Z,100100.72
2023-05-23T10:30:17.019Z,100089.38
2023-05-23T10:35:51.078Z,100088.42
2023-05-23T10:41:06.833Z,100086.84
2023-05-23T10:46:10.293Z,100085.54
2023-05-23T10:51:17.471Z,100082.79
2023-05-23T10:56:25.396Z,100085.47
2023-05-23T11:01:29.028Z,100078.61
2023-05-23T11:06:44.853Z,100074.76
2023-05-23T11:11:53.980Z,100071.11
2023-05-23T11:16:57.388Z,100069.23
2023-05-23T11:22:08.291Z,100067.02
2023-05-23T11:27:12.757Z,100060.59
2023-05-23T11:32:17.818Z,100051.64
2023-05-23T11:37:25.888Z,100049.73
2023-05-23T11:42:31.167Z,100046.88
2023-05-23T11:47:41.720Z,100041.58
2023-05-23T11:52:46.936Z,100039.58
2023-05-23T11:57:52.073Z,100032.61
2023-05-23T12:02:55.933Z,100026.87
2023-05-23T12:08:00.103Z,100029.83
2023-05-23T12:13:05.093Z,100028.31
2023-05-23T12:18:08.743Z,100029.98
2023-05-23T12:23:19.680Z,100024.82
2023-05-23T12:28:38.785Z,100021.52
2023-05-23T12:33:46.241Z,100018.34
2023-05-23T12:38:49.577Z,100017.74
2023-05-23T12:43:54.864Z,100013.25
2023-05-23T12:48:58.168Z,100015.24
2023-05-23T12:54:01.671Z,100008.00
2023-05-23T12:59:05.091Z,100001.17
2023-05-23T13:04:08.225Z,99996.52
2023-05-23T13:09:11.543Z,99996.81
2023-05-23T13:14:14.672Z,99993.02
2023-05-23T13:19:18.026Z,99985.23
2023-05-23T13:24:21.338Z,99983.70
2023-05-23T13:29:24.610Z,99982.20
2023-05-23T13:34:28.796Z,99977.96
2023-05-23T13:39:31.989Z,99974.85
2023-05-23T13:44:35.173Z,99977.45
2023-05-23T13:49:38.425Z,99977.91
2023-05-23T13:54:41.791Z,99969.16
2023-05-23T13:59:45.361Z,99968.21
2023-05-23T14:04:50.266Z,99964.46
2023-05-23T14:09:53.923Z,99964.23
2023-05-23T14:14:57.432Z,99959.24
2023-05-23T14:20:00.894Z,99953.81
2023-05-23T14:25:04.397Z,99951.34
2023-05-23T14:30:08.556Z,99945.13
2023-05-23T14:35:12.273Z,99945.02
2023-05-23T14:40:16.552Z,99942.24
2023-05-23T14:45:20.368Z,99941.58
2023-05-23T14:50:23.730Z,99939.13
2023-05-23T14:55:27.059Z,99940.16
2023-05-23T15:00:30.439Z,99940.02
2023-05-23T15:05:33.776Z,99937.43
2023-05-23T15:10:37.611Z,99937.32
2023-05-23T15:15:41.307Z,99931.25
2023-05-23T15:20:44.954Z,99929.72
2023-05-23T15:25:49.878Z,99925.23
2023-05-23T15:30:54.417Z,99921.86
2023-05-23T15:35:59.562Z,99919.49
2023-05-23T15:41:03.421Z,99919.16
2023-05-23T15:46:06.949Z,99921.71
2023-05-23T15:51:10.140Z,99918.28
2023-05-23T15:56:13.388Z,99917.15
2023-05-23T16:01:16.958Z,99912.40
2023-05-23T16:06:20.274Z,99909.98
2023-05-23T16:11:24.325Z,99906.97
2023-05-23T16:16:27.905Z,99904.46
2023-05-23T16:21:31.338Z,99905.67
2023-05-23T16:26:34.591Z,99906.29
2023-05-23T16:31:38.208Z,99901.64
2023-05-23T16:36:41.370Z,99902.20
2023-05-23T16:41:44.558Z,99901.23
2023-05-23T16:46:48.076Z,99902.71
2023-05-23T16:51:51.853Z,99905.27
2023-05-23T16:56:55.372Z,99908.49
2023-05-23T17:01:58.809Z,99913.64
2023-05-23T17:07:02.482Z,99914.84
2023-05-23T17:12:06.870Z,99912.77
2023-05-23T17:17:10.039Z,99910.17
2023-05-23T17:22:13.508Z,99911.20
2023-05-23T17:27:16.664Z,99912.78
2023-05-23T17:32:20.762Z,99914.48
2023-05-23T17:37:25.982Z,99912.77
2023-05-23T17:42:29.389Z,99919.76
2023-05-23T17:47:34.003Z,99918.85
2023-05-23T17:52:37.891Z,99919.86
2023-05-23T17:57:41.661Z,99916.23
2023-05-23T18:02:45.263Z,99916.86
2023-05-23T18:07:50.625Z,99920.54
2023-05-23T18:12:54.015Z,99917.52
2023-05-23T18:17:57.647Z,99921.13
2023-05-23T18:23:01.550Z,99920.09
2023-05-23T18:28:05.087Z,99919.82
2023-05-23T18:33:08.708Z,99926.91
2023-05-23T18:38:12.924Z,99931.30
2023-05-23T18:43:17.695Z,99943.17
2023-05-23T18:48:22.470Z,99944.46
2023-05-23T18:53:26.268Z,99946.21
2023-05-23T18:58:30.112Z,99953.40
2023-05-23T19:03:37.479Z,99961.67
2023-05-23T19:08:42.799Z,99958.25
2023-05-23T19:13:47.745Z,99957.36
2023-05-23T19:18:52.879Z,99961.43
2023-05-23T19:23:56.817Z,99963.38
2023-05-23T19:29:07.211Z,99961.88
2023-05-23T19:34:11.193Z,99967.98
2023-05-23T19:39:15.252Z,99969.81
2023-05-23T19:44:20.228Z,99975.74
2023-05-23T19:49:24.230Z,99972.92
2023-05-23T19:54:28.321Z,99976.29
2023-05-23T19:59:31.868Z,99973.24
2023-05-23T20:04:36.110Z,99976.26
2023-05-23T20:09:40.255Z,99978.03
2023-05-23T20:14:43.760Z,99978.63
2023-05-23T20:19:48.235Z,99979.10
2023-05-23T20:24:51.989Z,99983.36
2023-05-23T20:29:55.465Z,99992.69
2023-05-23T20:34:58.817Z,99997.73
2023-05-23T20:40:02.118Z,99994.49
2023-05-23T20:45:09.696Z,99993.23
2023-05-23T20:50:13.145Z,99998.05
2023-05-23T20:55:16.472Z,99995.23
2023-05-23T21:00:21.635Z,99993.30
2023-05-23T21:05:25.456Z,99990.98
2023-05-23T21:10:29.332Z,99989.20
2023-05-23T21:15:32.569Z,99992.19
2023-05-23T21:20:36.193Z,99994.70
2023-05-23T21:25:39.608Z,99990.63
2023-05-23T21:30:43.152Z,99990.30
2023-05-23T21:35:46.615Z,99992.08
2023-05-23T21:40:49.818Z,99994.27
2023-05-23T21:45:53.038Z,99990.33
2023-05-23T21:50:56.351Z,99994.28
2023-05-23T21:55:59.690Z,99995.98
2023-05-23T22:01:03.039Z,99994.33
2023-05-23T22:06:06.813Z,99997.59
2023-05-23T22:11:10.532Z,99990.85
2023-05-23T22:16:13.858Z,99999.27
2023-05-23T22:21:17.064Z,99991.98
2023-05-23T22:26:22.036Z,99992.20
2023-05-23T22:31:25.317Z,99995.21
2023-05-23T22:36:28.612Z,99997.79
2023-05-23T22:41:32.596Z,99994.52
2023-05-23T22:46:36.719Z,99996.86
2023-05-23T22:51:41.053Z,100002.44
2023-05-23T22:56:44.660Z,100001.77
2023-05-23T23:01:47.927Z,99994.11
2023-05-23T23:06:53.837Z,99998.19
2023-05-23T23:12:03.428Z,99998.33
2023-05-23T23:17:17.131Z,99987.90
2023-05-23T23:22:21.200Z,99986.44
2023-05-23T23:27:31.095Z,99984.39
2023-05-23T23:32:34.721Z,99978.39
2023-05-23T23:37:38.269Z,99976.45
2023-05-23T23:42:41.774Z,99975.39
2023-05-23T23:47:46.629Z,99975.38
